createdAt,value
2023-03-06T00:02:22.992Z,0
2023-03-06T00:12:24.107Z,0
2023-03-06T00:22:24.953Z,0
2023-03-06T00:32:25.569Z,0
2023-03-06T00:42:26.113Z,0
2023-03-06T00:52:27.251Z,0
2023-03-06T01:02:27.360Z,0
2023-03-06T01:12:28.220Z,0
2023-03-06T01:22:29.303Z,0
2023-03-06T01:32:28.502Z,0
2023-03-06T01:42:32.047Z,0
2023-03-06T01:52:30.341Z,0
2023-03-06T02:02:30.348Z,0
2023-03-06T02:12:32.284Z,0
2023-03-06T02:22:33.094Z,0
2023-03-06T02:32:33.347Z,0
2023-03-06T02:42:33.915Z,0
2023-03-06T02:52:34.554Z,0
2023-03-06T03:02:10.030Z,0
2023-03-06T03:12:10.726Z,0
2023-03-06T03:22:10.845Z,0
2023-03-06T03:32:12.344Z,0
2023-03-06T03:42:14.182Z,0
2023-03-06T03:52:15.274Z,0
2023-03-06T04:02:16.921Z,0
2023-03-06T04:12:18.988Z,0
2023-03-06T04:22:21.388Z,0
2023-03-06T04:32:23.514Z,0
2023-03-06T04:42:25.596Z,0
2023-03-06T04:52:27.310Z,0
2023-03-06T05:02:28.824Z,0
2023-03-06T05:12:29.598Z,258.3
2023-03-06T05:22:30.766Z,258.3
2023-03-06T05:32:33.303Z,258.3
2023-03-06T05:42:32.830Z,258.3
2023-03-06T05:52:34.510Z,258.3
2023-03-06T06:02:43.050Z,258.3
2023-03-06T06:12:51.610Z,73.1
2023-03-06T06:24:09.366Z,0
2023-03-06T06:34:25.181Z,0
2023-03-06T06:44:42.083Z,0
2023-03-06T06:54:57.694Z,0
2023-03-06T07:00:03.648Z,0
2023-03-06T07:10:21.287Z,0
2023-03-06T07:20:38.785Z,0
2023-03-06T07:30:57.225Z,0
2023-03-06T07:41:17.254Z,0
2023-03-06T07:51:36.931Z,0
2023-03-06T08:01:55.486Z,0
2023-03-06T08:12:12.369Z,0
2023-03-06T08:22:28.970Z,0
2023-03-06T08:32:45.795Z,0
2023-03-06T08:43:04.346Z,0
2023-03-06T08:53:27.995Z,0
2023-03-06T09:02:10.506Z,0
2023-03-06T09:12:37.332Z,99.7
2023-03-06T09:22:51.728Z,103.3
2023-03-06T09:33:08.285Z,103.3
2023-03-06T09:43:27.016Z,110.3
2023-03-06T09:53:48.081Z,111.4
2023-03-06T10:04:06.215Z,113.3
2023-03-06T10:14:28.274Z,115.8
2023-03-06T10:24:49.949Z,117.8
2023-03-06T10:35:10.779Z,117.8
2023-03-06T10:45:43.866Z,121
2023-03-06T10:55:52.847Z,121.1
2023-03-06T11:06:12.983Z,121.1
2023-03-06T11:16:31.487Z,119.6
2023-03-06T11:26:51.097Z,124.1
2023-03-06T11:37:08.397Z,122.9
2023-03-06T11:47:28.937Z,117.6
2023-03-06T11:57:48.339Z,120
2023-03-06T12:08:06.783Z,120.1
2023-03-06T12:18:16.367Z,123.5
2023-03-06T12:28:28.731Z,123.9
2023-03-06T12:38:36.937Z,124.7
2023-03-06T12:48:43.577Z,120.2
2023-03-06T12:58:51.909Z,117
2023-03-06T13:08:56.720Z,110.6
2023-03-06T13:19:05.614Z,110.6
2023-03-06T13:29:19.265Z,110.6
2023-03-06T13:39:28.042Z,106.1
2023-03-06T13:49:32.867Z,106.3
2023-03-06T13:59:37.626Z,103.8
2023-03-06T14:09:41.503Z,103.8
2023-03-06T14:19:45.055Z,103.8
2023-03-06T14:29:48.038Z,103.8
2023-03-06T14:39:50.550Z,103.8
2023-03-06T14:49:51.985Z,103.8
2023-03-06T14:59:54.137Z,103.8
2023-03-06T15:02:07.634Z,0
2023-03-06T15:12:07.215Z,0
2023-03-06T15:22:10.039Z,0
2023-03-06T15:32:10.771Z,0
2023-03-06T15:42:12.125Z,0
2023-03-06T15:52:14.632Z,0
2023-03-06T16:02:16.438Z,0
2023-03-06T16:12:18.278Z,0
2023-03-06T16:22:19.952Z,0
2023-03-06T16:32:23.228Z,0
2023-03-06T16:42:26.168Z,0
2023-03-06T16:52:28.054Z,0
2023-03-06T17:02:29.881Z,0
2023-03-06T17:12:31.373Z,0
2023-03-06T17:22:31.440Z,0
2023-03-06T17:32:33.555Z,39.6
2023-03-06T17:42:36.868Z,38.6
2023-03-06T17:52:37.116Z,38.6
2023-03-06T18:02:38.549Z,38.6
2023-03-06T18:12:40.721Z,38.6
2023-03-06T18:22:43.532Z,29.9
2023-03-06T18:32:46.913Z,28.1
2023-03-06T18:42:50.346Z,27.5
2023-03-06T18:52:53.987Z,26.3
2023-03-06T19:02:57.417Z,25.3
2023-03-06T19:13:00.822Z,25
2023-03-06T19:23:03.951Z,23.8
2023-03-06T19:33:07.245Z,23.3
2023-03-06T19:43:10.690Z,21.4
2023-03-06T19:53:14.120Z,20.8
2023-03-06T20:03:18.077Z,20.8
2023-03-06T20:13:20.931Z,19.7
2023-03-06T20:23:24.819Z,19.6
2023-03-06T20:33:28.182Z,18.8
2023-03-06T20:43:31.987Z,18.8
2023-03-06T20:53:35.952Z,18.1
2023-03-06T21:02:09.897Z,0
2023-03-06T21:12:13.154Z,17.2
2023-03-06T21:22:16.504Z,17.6
2023-03-06T21:32:19.908Z,16.9
2023-03-06T21:42:23.302Z,17.1
2023-03-06T21:52:26.669Z,16.2
2023-03-06T22:02:30.623Z,16.9
2023-03-06T22:12:35.282Z,15.9
2023-03-06T22:22:39.999Z,15.8
2023-03-06T22:32:44.906Z,15.3
2023-03-06T22:42:49.432Z,15.8
2023-03-06T22:52:54.064Z,15.8
2023-03-06T23:02:58.220Z,14.8
2023-03-06T23:12:58.884Z,576.8
2023-03-06T23:22:58.744Z,1161.1
2023-03-06T23:32:59.728Z,1161.1
2023-03-06T23:43:00.078Z,1161.1
2023-03-06T23:52:59.892Z,1161.1
